Nearby METAR Reports

 

KSJC - San Jose, California, USA
Distance from station: NE 14km
Actualización: 02/04/2020 05:53
Few Clouds
Few Clouds
 Viento del NO
Viento: NO 6 km/h
Temperatura: 11°C
Rocío: 2°C
Humedad: 54%
Barómetro: 1015.9 hPa
Clouds: Few Clouds
Visibilidad: 16 km
Cloud details: Few Clouds 792 m
2020/04/02 03:53 KSJC 020353Z 31003KT 10SM FEW026 11/02 A3000 RMK AO2 SLP158 T01060022
KNUQ - Moffett Nas/Mtn, California, USA
Distance from station: N 14km
Actualización: 21/11/2019 17:56
NOT Current

 
Barómetro: 1011.2 hPa
2019/11/21 16:56 KNUQ 211656Z AUTO A2986 RMK AO2 SLP116 PWINO $
 
KPAO - Palo Alto, California, USA
Distance from station: NNO 23km
Actualización: 02/04/2020 06:47
Despejado
Despejado
 Viento del O
Viento: O 15 km/h
Temperatura: 11°C
Rocío: 4°C
Humedad: 62%
Barómetro: 1015.9 hPa
Clouds: Despejado
Visibilidad: 16 km
2020/04/02 04:47 KPAO 020447Z 27008KT 10SM SKC 11/04 A3000 RMK LAST
KRHV - San Jose/Reid, California, USA
Distance from station: ENE 19km
Actualización: 02/04/2020 05:48
Despejado
Despejado
 Viento del N
Viento: N 11 km/h
Temperatura: 11°C
Rocío: 4°C
Humedad: 62%
Barómetro: 1016.3 hPa
Clouds: Despejado
Visibilidad: 16 km
2020/04/02 03:48 KRHV 020348Z 35006KT 10SM SKC 11/04 A3001
 
KOAK - Oakland, California, USA
Distance from station: NNO 50km
Actualización: 02/04/2020 05:53
Few Clouds
Few Clouds
 Viento del NNO
Viento: NNO 9 km/h
Temperatura: 13°C
Rocío: 4°C
Humedad: 55%
Barómetro: 1015.6 hPa
Clouds: Few Clouds
Visibilidad: 16 km
Cloud details: Few Clouds 396 m
2020/04/02 03:53 KOAK 020353Z 34005KT 10SM FEW013 13/04 A2999 RMK AO2 SLP156 T01330044
KSQL - San Carlos Airpo, California, USA
Distance from station: NO 34km
Actualización: 02/04/2020 05:47
Few Clouds
Few Clouds
 Viento del O
Viento: O 15 km/h
Temperatura: 11°C
Rocío: 4°C
Humedad: 62%
Barómetro: 1015.9 hPa
Clouds: Few Clouds
Visibilidad: 16 km
Cloud details: Few Clouds 610 m
2020/04/02 03:47 KSQL 020347Z 28008KT 10SM FEW020 11/04 A3000 RMK LAST
 
KSFO - San Francisco, California, USA
Distance from station: NO 49km
Actualización: 02/04/2020 05:56
Despejado
Despejado
 Viento del O
Viento: O 24 km/h
Temperatura: 12°C
Rocío: 5°C
Humedad: 63%
Barómetro: 1015.6 hPa
Clouds: Despejado
Visibilidad: 16 km
2020/04/02 03:56 KSFO 020356Z 28013KT 10SM CLR 12/05 A2999 RMK AO2 SLP156 T01170050
KE16 - San Martin, California, USA
Distance from station: ESE 43km
Actualización: 14/11/2019 10:35
NOT Current
Cubierto
Cubierto
 Viento del SE
Viento: SE 11 km/h
Temperatura: 12°C
Rocío: 10°C
Humedad: 88%
Barómetro: 1017.6 hPa
Clouds: Cubierto
Visibilidad: 16 km
Cloud details: Cubierto 427 m
2019/11/14 09:35 KE16 140935Z AUTO 13006KT 10SM OVC014 12/10 A3005 RMK AO2
 
KWVI - Watsonville, California, USA
Distance from station: SSE 44km
Actualización: 02/04/2020 05:53
Despejado
Despejado
 Viento del SE
Viento: SE 13 km/h
Temperatura: 12°C
Rocío: 6°C
Humedad: 67%
Barómetro: 1015.2 hPa
Clouds: Despejado
Visibilidad: 16 km
2020/04/02 03:53 KWVI 020353Z AUTO 13007KT 10SM CLR 12/06 A2998 RMK AO2 SLP153 T01170056
KHAF - Half Moon Bay, California, USA
Distance from station: ONO 50km
Actualización: 02/04/2020 05:55
Parcialmente nuboso
Parcialmente nuboso
 Viento del NNO
Viento: NNO 28 km/h, Racha: 48 km/h
Temperatura: 10°C
Temp.Sensacion: 7°C
Rocío: 5°C
Humedad: 71%
Barómetro: 1016.3 hPa
Clouds: Parcialmente nuboso
Visibilidad: 11 km
Cloud details: Parcialmente nuboso 396 m
2020/04/02 03:55 KHAF 020355Z AUTO 34015G26KT 7SM SCT013 10/05 A3001 RMK AO2
 
KHWD - Hayward, California, USA
Distance from station: N 44km
Actualización: 02/04/2020 05:54
Despejado
Despejado
 Viento del NO
Viento: NO 9 km/h
Temperatura: 12°C
Rocío: 4°C
Humedad: 58%
Barómetro: 1015.6 hPa
Clouds: Despejado
Visibilidad: 16 km
2020/04/02 03:54 KHWD 020354Z AUTO 31005KT 10SM CLR 12/04 A2999 RMK AO2 SLP164 T01170039
KLVK - Livermore, California, USA
Distance from station: NNE 51km
Actualización: 02/04/2020 05:53
Despejado
Despejado
 Viento del S
Viento: S 7 km/h
Temperatura: 10°C
Temp.Sensacion: 9°C
Rocío: 5°C
Humedad: 71%
Barómetro: 1015.2 hPa
Clouds: Despejado
Visibilidad: 16 km
2020/04/02 03:53 KLVK 020353Z 17004KT 10SM CLR 10/05 A2998 RMK AO2 SLP151 T01000050